sensor_id;sensor_type;location;lat;lon;timestamp;P1;durP1;ratioP1;P2;durP2;ratioP2
46765;SDS011;32527;51.986;5.842;2023-11-21T00:01:57;12.70;;;7.22;;
46765;SDS011;32527;51.986;5.842;2023-11-21T00:04:23;25.08;;;8.55;;
46765;SDS011;32527;51.986;5.842;2023-11-21T00:06:49;15.60;;;7.95;;
46765;SDS011;32527;51.986;5.842;2023-11-21T00:09:15;19.02;;;8.90;;
46765;SDS011;32527;51.986;5.842;2023-11-21T00:11:42;11.15;;;6.82;;
46765;SDS011;32527;51.986;5.842;2023-11-21T00:14:09;11.45;;;7.22;;
46765;SDS011;32527;51.986;5.842;2023-11-21T00:16:35;19.38;;;9.48;;
46765;SDS011;32527;51.986;5.842;2023-11-21T00:19:01;17.85;;;8.65;;
46765;SDS011;32527;51.986;5.842;2023-11-21T00:21:27;13.27;;;8.00;;
46765;SDS011;32527;51.986;5.842;2023-11-21T00:23:53;21.70;;;10.38;;
46765;SDS011;32527;51.986;5.842;2023-11-21T00:26:19;15.70;;;7.00;;
46765;SDS011;32527;51.986;5.842;2023-11-21T00:28:55;13.55;;;8.65;;
46765;SDS011;32527;51.986;5.842;2023-11-21T00:31:21;19.25;;;8.75;;
46765;SDS011;32527;51.986;5.842;2023-11-21T00:33:47;15.30;;;7.40;;
46765;SDS011;32527;51.986;5.842;2023-11-21T00:36:14;18.98;;;8.30;;
46765;SDS011;32527;51.986;5.842;2023-11-21T00:38:40;21.73;;;8.82;;
46765;SDS011;32527;51.986;5.842;2023-11-21T00:41:06;15.60;;;8.60;;
46765;SDS011;32527;51.986;5.842;2023-11-21T00:43:32;29.95;;;9.18;;
46765;SDS011;32527;51.986;5.842;2023-11-21T00:45:59;16.67;;;8.43;;
46765;SDS011;32527;51.986;5.842;2023-11-21T00:48:29;18.05;;;8.45;;
46765;SDS011;32527;51.986;5.842;2023-11-21T00:50:55;19.27;;;9.40;;
46765;SDS011;32527;51.986;5.842;2023-11-21T00:53:21;19.25;;;8.00;;
46765;SDS011;32527;51.986;5.842;2023-11-21T00:55:47;16.70;;;8.20;;
46765;SDS011;32527;51.986;5.842;2023-11-21T00:58:13;18.95;;;8.80;;
46765;SDS011;32527;51.986;5.842;2023-11-21T01:00:39;16.38;;;7.40;;
46765;SDS011;32527;51.986;5.842;2023-11-21T01:03:06;16.70;;;7.28;;
46765;SDS011;32527;51.986;5.842;2023-11-21T01:05:33;18.02;;;7.57;;
46765;SDS011;32527;51.986;5.842;2023-11-21T01:07:59;14.65;;;8.50;;
46765;SDS011;32527;51.986;5.842;2023-11-21T01:10:25;14.13;;;7.75;;
46765;SDS011;32527;51.986;5.842;2023-11-21T01:12:52;16.83;;;7.93;;
46765;SDS011;32527;51.986;5.842;2023-11-21T01:15:18;14.38;;;8.43;;
46765;SDS011;32527;51.986;5.842;2023-11-21T01:17:45;18.00;;;7.90;;
46765;SDS011;32527;51.986;5.842;2023-11-21T01:20:11;23.10;;;9.85;;
46765;SDS011;32527;51.986;5.842;2023-11-21T01:22:38;19.30;;;7.18;;
46765;SDS011;32527;51.986;5.842;2023-11-21T01:25:05;16.13;;;7.95;;
46765;SDS011;32527;51.986;5.842;2023-11-21T01:27:35;15.05;;;6.97;;
46765;SDS011;32527;51.986;5.842;2023-11-21T01:30:02;16.40;;;7.50;;
46765;SDS011;32527;51.986;5.842;2023-11-21T01:32:28;16.33;;;8.70;;
46765;SDS011;32527;51.986;5.842;2023-11-21T01:34:55;17.05;;;9.20;;
46765;SDS011;32527;51.986;5.842;2023-11-21T01:37:21;15.93;;;7.55;;
46765;SDS011;32527;51.986;5.842;2023-11-21T01:39:47;11.63;;;6.90;;
46765;SDS011;32527;51.986;5.842;2023-11-21T01:42:14;13.05;;;8.25;;
46765;SDS011;32527;51.986;5.842;2023-11-21T01:44:40;11.85;;;7.00;;
46765;SDS011;32527;51.986;5.842;2023-11-21T01:47:06;15.00;;;7.35;;
46765;SDS011;32527;51.986;5.842;2023-11-21T01:49:32;16.40;;;7.00;;
46765;SDS011;32527;51.986;5.842;2023-11-21T01:51:59;15.23;;;7.82;;
46765;SDS011;32527;51.986;5.842;2023-11-21T01:54:25;16.45;;;9.40;;
46765;SDS011;32527;51.986;5.842;2023-11-21T01:56:52;25.60;;;8.40;;
46765;SDS011;32527;51.986;5.842;2023-11-21T01:59:18;18.02;;;9.18;;
46765;SDS011;32527;51.986;5.842;2023-11-21T02:01:46;19.20;;;8.18;;
46765;SDS011;32527;51.986;5.842;2023-11-21T02:04:13;15.85;;;9.32;;
46765;SDS011;32527;51.986;5.842;2023-11-21T02:06:39;18.25;;;8.80;;
46765;SDS011;32527;51.986;5.842;2023-11-21T02:09:05;14.63;;;7.97;;
46765;SDS011;32527;51.986;5.842;2023-11-21T02:11:31;19.63;;;8.90;;
46765;SDS011;32527;51.986;5.842;2023-11-21T02:14:00;14.25;;;7.60;;
46765;SDS011;32527;51.986;5.842;2023-11-21T02:16:27;17.13;;;8.27;;
46765;SDS011;32527;51.986;5.842;2023-11-21T02:18:56;15.82;;;7.95;;
46765;SDS011;32527;51.986;5.842;2023-11-21T02:21:24;13.15;;;8.07;;
46765;SDS011;32527;51.986;5.842;2023-11-21T02:23:50;23.13;;;8.27;;
46765;SDS011;32527;51.986;5.842;2023-11-21T02:26:16;16.95;;;8.43;;
46765;SDS011;32527;51.986;5.842;2023-11-21T02:28:44;25.10;;;9.40;;
46765;SDS011;32527;51.986;5.842;2023-11-21T02:31:10;15.00;;;8.57;;
46765;SDS011;32527;51.986;5.842;2023-11-21T02:33:38;16.92;;;8.82;;
46765;SDS011;32527;51.986;5.842;2023-11-21T02:36:04;17.58;;;9.02;;
46765;SDS011;32527;51.986;5.842;2023-11-21T02:38:30;13.05;;;8.13;;
46765;SDS011;32527;51.986;5.842;2023-11-21T02:40:57;18.33;;;8.63;;
46765;SDS011;32527;51.986;5.842;2023-11-21T02:43:24;15.75;;;8.80;;
46765;SDS011;32527;51.986;5.842;2023-11-21T02:45:50;18.42;;;9.95;;
46765;SDS011;32527;51.986;5.842;2023-11-21T02:48:16;15.73;;;8.63;;
46765;SDS011;32527;51.986;5.842;2023-11-21T02:50:42;15.15;;;8.77;;
46765;SDS011;32527;51.986;5.842;2023-11-21T02:53:09;17.83;;;8.50;;
46765;SDS011;32527;51.986;5.842;2023-11-21T02:55:35;13.48;;;8.63;;
46765;SDS011;32527;51.986;5.842;2023-11-21T02:58:02;15.50;;;9.27;;
46765;SDS011;32527;51.986;5.842;2023-11-21T03:00:31;16.52;;;8.27;;
46765;SDS011;32527;51.986;5.842;2023-11-21T03:02:58;22.90;;;9.13;;
46765;SDS011;32527;51.986;5.842;2023-11-21T03:05:25;16.73;;;8.18;;
46765;SDS011;32527;51.986;5.842;2023-11-21T03:07:51;16.80;;;8.73;;
46765;SDS011;32527;51.986;5.842;2023-11-21T03:10:18;15.93;;;8.85;;
46765;SDS011;32527;51.986;5.842;2023-11-21T03:12:44;18.17;;;8.52;;
46765;SDS011;32527;51.986;5.842;2023-11-21T03:15:10;16.55;;;8.55;;
46765;SDS011;32527;51.986;5.842;2023-11-21T03:17:36;20.92;;;10.45;;
46765;SDS011;32527;51.986;5.842;2023-11-21T03:20:02;13.75;;;8.43;;
46765;SDS011;32527;51.986;5.842;2023-11-21T03:22:29;16.77;;;8.02;;
46765;SDS011;32527;51.986;5.842;2023-11-21T03:24:55;18.10;;;7.57;;
46765;SDS011;32527;51.986;5.842;2023-11-21T03:27:21;17.17;;;8.68;;
46765;SDS011;32527;51.986;5.842;2023-11-21T03:29:47;13.50;;;8.10;;
46765;SDS011;32527;51.986;5.842;2023-11-21T03:32:15;18.92;;;10.13;;
46765;SDS011;32527;51.986;5.842;2023-11-21T03:34:57;21.48;;;9.60;;
46765;SDS011;32527;51.986;5.842;2023-11-21T03:37:23;15.52;;;8.70;;
46765;SDS011;32527;51.986;5.842;2023-11-21T03:39:50;15.90;;;8.30;;
46765;SDS011;32527;51.986;5.842;2023-11-21T03:42:16;20.70;;;10.40;;
46765;SDS011;32527;51.986;5.842;2023-11-21T03:44:42;18.55;;;8.82;;
46765;SDS011;32527;51.986;5.842;2023-11-21T03:47:08;13.07;;;8.02;;
46765;SDS011;32527;51.986;5.842;2023-11-21T03:49:34;18.17;;;9.93;;
46765;SDS011;32527;51.986;5.842;2023-11-21T03:52:00;16.42;;;8.13;;
46765;SDS011;32527;51.986;5.842;2023-11-21T03:54:30;20.08;;;8.80;;
46765;SDS011;32527;51.986;5.842;2023-11-21T03:56:56;18.20;;;8.35;;
46765;SDS011;32527;51.986;5.842;2023-11-21T03:59:22;13.68;;;8.38;;
46765;SDS011;32527;51.986;5.842;2023-11-21T04:01:49;16.65;;;7.97;;
46765;SDS011;32527;51.986;5.842;2023-11-21T04:04:16;17.95;;;9.52;;
46765;SDS011;32527;51.986;5.842;2023-11-21T04:06:42;16.08;;;8.32;;
46765;SDS011;32527;51.986;5.842;2023-11-21T04:09:08;16.60;;;8.50;;
46765;SDS011;32527;51.986;5.842;2023-11-21T04:11:34;14.65;;;8.90;;
46765;SDS011;32527;51.986;5.842;2023-11-21T04:14:00;15.32;;;9.27;;
46765;SDS011;32527;51.986;5.842;2023-11-21T04:16:26;13.60;;;7.22;;
46765;SDS011;32527;51.986;5.842;2023-11-21T04:18:52;17.30;;;7.90;;
46765;SDS011;32527;51.986;5.842;2023-11-21T04:21:18;17.85;;;7.32;;
46765;SDS011;32527;51.986;5.842;2023-11-21T04:23:44;19.65;;;9.85;;
46765;SDS011;32527;51.986;5.842;2023-11-21T04:26:11;20.58;;;8.57;;
46765;SDS011;32527;51.986;5.842;2023-11-21T04:28:37;19.88;;;9.05;;
46765;SDS011;32527;51.986;5.842;2023-11-21T04:31:04;18.20;;;9.38;;
46765;SDS011;32527;51.986;5.842;2023-11-21T04:33:30;17.90;;;8.10;;
46765;SDS011;32527;51.986;5.842;2023-11-21T04:35:56;17.58;;;8.95;;
46765;SDS011;32527;51.986;5.842;2023-11-21T04:38:22;14.93;;;8.93;;
46765;SDS011;32527;51.986;5.842;2023-11-21T04:40:48;13.80;;;7.75;;
46765;SDS011;32527;51.986;5.842;2023-11-21T04:43:14;17.42;;;8.35;;
46765;SDS011;32527;51.986;5.842;2023-11-21T04:45:40;14.82;;;8.75;;
46765;SDS011;32527;51.986;5.842;2023-11-21T04:48:07;14.95;;;8.70;;
46765;SDS011;32527;51.986;5.842;2023-11-21T04:50:33;16.05;;;8.95;;
46765;SDS011;32527;51.986;5.842;2023-11-21T04:52:59;15.32;;;7.32;;
46765;SDS011;32527;51.986;5.842;2023-11-21T04:55:25;18.08;;;8.10;;
46765;SDS011;32527;51.986;5.842;2023-11-21T04:57:53;15.20;;;7.90;;
46765;SDS011;32527;51.986;5.842;2023-11-21T05:00:19;10.30;;;6.93;;
46765;SDS011;32527;51.986;5.842;2023-11-21T05:02:46;15.65;;;7.88;;
46765;SDS011;32527;51.986;5.842;2023-11-21T05:05:12;13.82;;;8.05;;
46765;SDS011;32527;51.986;5.842;2023-11-21T05:07:39;11.88;;;7.03;;
46765;SDS011;32527;51.986;5.842;2023-11-21T05:10:06;13.00;;;7.78;;
46765;SDS011;32527;51.986;5.842;2023-11-21T05:12:35;14.52;;;7.40;;
46765;SDS011;32527;51.986;5.842;2023-11-21T05:15:05;12.63;;;7.55;;
46765;SDS011;32527;51.986;5.842;2023-11-21T05:17:37;17.58;;;8.10;;
46765;SDS011;32527;51.986;5.842;2023-11-21T05:20:07;13.15;;;7.20;;
46765;SDS011;32527;51.986;5.842;2023-11-21T05:22:34;13.50;;;7.63;;
46765;SDS011;32527;51.986;5.842;2023-11-21T05:25:01;10.95;;;6.55;;
46765;SDS011;32527;51.986;5.842;2023-11-21T05:27:28;13.68;;;7.55;;
46765;SDS011;32527;51.986;5.842;2023-11-21T05:29:56;14.43;;;7.00;;
46765;SDS011;32527;51.986;5.842;2023-11-21T05:32:22;14.40;;;7.70;;
46765;SDS011;32527;51.986;5.842;2023-11-21T05:34:48;13.18;;;6.90;;
46765;SDS011;32527;51.986;5.842;2023-11-21T05:37:14;11.70;;;7.50;;
46765;SDS011;32527;51.986;5.842;2023-11-21T05:39:40;13.68;;;6.65;;
46765;SDS011;32527;51.986;5.842;2023-11-21T05:42:06;19.48;;;8.00;;
46765;SDS011;32527;51.986;5.842;2023-11-21T05:44:34;13.52;;;7.68;;
46765;SDS011;32527;51.986;5.842;2023-11-21T05:47:00;13.88;;;7.32;;
46765;SDS011;32527;51.986;5.842;2023-11-21T05:49:26;12.88;;;6.95;;
46765;SDS011;32527;51.986;5.842;2023-11-21T05:51:55;15.30;;;7.72;;
46765;SDS011;32527;51.986;5.842;2023-11-21T05:54:21;11.20;;;6.85;;
46765;SDS011;32527;51.986;5.842;2023-11-21T05:56:48;14.00;;;8.23;;
46765;SDS011;32527;51.986;5.842;2023-11-21T05:59:15;13.73;;;8.10;;
46765;SDS011;32527;51.986;5.842;2023-11-21T06:01:41;14.20;;;7.78;;
46765;SDS011;32527;51.986;5.842;2023-11-21T06:04:07;13.90;;;7.05;;
46765;SDS011;32527;51.986;5.842;2023-11-21T06:06:34;14.27;;;7.57;;
46765;SDS011;32527;51.986;5.842;2023-11-21T06:09:00;13.35;;;7.20;;
46765;SDS011;32527;51.986;5.842;2023-11-21T06:11:27;18.05;;;9.02;;
46765;SDS011;32527;51.986;5.842;2023-11-21T06:13:53;15.10;;;7.85;;
46765;SDS011;32527;51.986;5.842;2023-11-21T06:16:19;16.48;;;6.50;;
46765;SDS011;32527;51.986;5.842;2023-11-21T06:18:46;13.25;;;6.72;;
46765;SDS011;32527;51.986;5.842;2023-11-21T06:21:12;15.32;;;7.53;;
46765;SDS011;32527;51.986;5.842;2023-11-21T06:23:38;14.50;;;7.03;;
46765;SDS011;32527;51.986;5.842;2023-11-21T06:26:05;13.93;;;8.57;;
46765;SDS011;32527;51.986;5.842;2023-11-21T06:28:31;10.70;;;6.63;;
46765;SDS011;32527;51.986;5.842;2023-11-21T06:30:57;14.35;;;6.93;;
46765;SDS011;32527;51.986;5.842;2023-11-21T06:33:23;14.10;;;8.50;;
46765;SDS011;32527;51.986;5.842;2023-11-21T06:35:52;15.88;;;7.55;;
46765;SDS011;32527;51.986;5.842;2023-11-21T06:38:18;16.10;;;7.55;;
46765;SDS011;32527;51.986;5.842;2023-11-21T06:40:44;15.45;;;7.25;;
46765;SDS011;32527;51.986;5.842;2023-11-21T06:43:11;14.77;;;8.07;;
46765;SDS011;32527;51.986;5.842;2023-11-21T06:45:37;13.35;;;7.85;;
46765;SDS011;32527;51.986;5.842;2023-11-21T06:48:03;12.43;;;6.97;;
46765;SDS011;32527;51.986;5.842;2023-11-21T06:50:29;23.52;;;7.22;;
46765;SDS011;32527;51.986;5.842;2023-11-21T06:52:56;12.23;;;7.13;;
46765;SDS011;32527;51.986;5.842;2023-11-21T06:55:22;13.73;;;7.15;;
46765;SDS011;32527;51.986;5.842;2023-11-21T06:57:48;12.50;;;7.55;;
46765;SDS011;32527;51.986;5.842;2023-11-21T07:00:15;12.57;;;6.82;;
46765;SDS011;32527;51.986;5.842;2023-11-21T07:02:45;13.52;;;7.97;;
46765;SDS011;32527;51.986;5.842;2023-11-21T07:05:11;14.40;;;8.40;;
46765;SDS011;32527;51.986;5.842;2023-11-21T07:07:39;17.52;;;8.85;;
46765;SDS011;32527;51.986;5.842;2023-11-21T07:10:05;19.60;;;9.13;;
46765;SDS011;32527;51.986;5.842;2023-11-21T07:12:31;10.93;;;6.97;;
46765;SDS011;32527;51.986;5.842;2023-11-21T07:14:57;22.70;;;9.52;;
46765;SDS011;32527;51.986;5.842;2023-11-21T07:17:24;14.65;;;9.00;;
46765;SDS011;32527;51.986;5.842;2023-11-21T07:19:50;16.10;;;8.30;;
46765;SDS011;32527;51.986;5.842;2023-11-21T07:22:16;16.25;;;8.63;;
46765;SDS011;32527;51.986;5.842;2023-11-21T07:24:49;19.73;;;8.63;;
46765;SDS011;32527;51.986;5.842;2023-11-21T07:27:18;14.18;;;9.02;;
46765;SDS011;32527;51.986;5.842;2023-11-21T07:29:44;17.73;;;7.75;;
46765;SDS011;32527;51.986;5.842;2023-11-21T07:32:10;16.23;;;8.35;;
46765;SDS011;32527;51.986;5.842;2023-11-21T07:34:38;15.05;;;8.35;;
46765;SDS011;32527;51.986;5.842;2023-11-21T07:37:04;17.98;;;8.40;;
46765;SDS011;32527;51.986;5.842;2023-11-21T07:39:30;15.43;;;8.30;;
46765;SDS011;32527;51.986;5.842;2023-11-21T07:41:56;12.32;;;8.40;;
46765;SDS011;32527;51.986;5.842;2023-11-21T07:44:23;14.27;;;8.00;;
46765;SDS011;32527;51.986;5.842;2023-11-21T07:46:50;18.60;;;9.00;;
46765;SDS011;32527;51.986;5.842;2023-11-21T07:49:22;16.98;;;8.90;;
46765;SDS011;32527;51.986;5.842;2023-11-21T07:51:49;17.20;;;11.05;;
46765;SDS011;32527;51.986;5.842;2023-11-21T07:54:15;26.20;;;9.75;;
46765;SDS011;32527;51.986;5.842;2023-11-21T07:56:41;16.83;;;9.90;;
46765;SDS011;32527;51.986;5.842;2023-11-21T07:59:07;20.08;;;9.77;;
46765;SDS011;32527;51.986;5.842;2023-11-21T08:01:33;17.58;;;9.02;;
46765;SDS011;32527;51.986;5.842;2023-11-21T08:03:59;16.30;;;9.40;;
46765;SDS011;32527;51.986;5.842;2023-11-21T08:06:32;18.40;;;8.77;;
46765;SDS011;32527;51.986;5.842;2023-11-21T08:08:58;19.63;;;9.25;;
46765;SDS011;32527;51.986;5.842;2023-11-21T08:11:24;13.48;;;8.25;;
46765;SDS011;32527;51.986;5.842;2023-11-21T08:13:51;18.90;;;8.88;;
46765;SDS011;32527;51.986;5.842;2023-11-21T08:16:18;20.38;;;10.50;;
46765;SDS011;32527;51.986;5.842;2023-11-21T08:18:44;19.38;;;9.85;;
46765;SDS011;32527;51.986;5.842;2023-11-21T08:21:12;16.15;;;8.88;;
46765;SDS011;32527;51.986;5.842;2023-11-21T08:23:38;18.35;;;9.40;;
46765;SDS011;32527;51.986;5.842;2023-11-21T08:26:04;15.05;;;8.65;;
46765;SDS011;32527;51.986;5.842;2023-11-21T08:28:30;24.10;;;10.10;;
46765;SDS011;32527;51.986;5.842;2023-11-21T08:30:56;19.65;;;8.88;;
46765;SDS011;32527;51.986;5.842;2023-11-21T08:33:22;18.67;;;9.35;;
46765;SDS011;32527;51.986;5.842;2023-11-21T08:35:48;14.48;;;9.10;;
46765;SDS011;32527;51.986;5.842;2023-11-21T08:38:15;25.98;;;11.32;;
46765;SDS011;32527;51.986;5.842;2023-11-21T08:40:41;21.83;;;11.05;;
46765;SDS011;32527;51.986;5.842;2023-11-21T08:43:07;23.23;;;8.90;;
46765;SDS011;32527;51.986;5.842;2023-11-21T08:45:33;21.80;;;9.70;;
46765;SDS011;32527;51.986;5.842;2023-11-21T08:48:00;20.88;;;10.23;;
46765;SDS011;32527;51.986;5.842;2023-11-21T08:50:26;22.77;;;10.10;;
46765;SDS011;32527;51.986;5.842;2023-11-21T08:52:52;19.35;;;8.88;;
46765;SDS011;32527;51.986;5.842;2023-11-21T08:55:18;21.83;;;10.85;;
46765;SDS011;32527;51.986;5.842;2023-11-21T08:57:45;15.38;;;8.52;;
46765;SDS011;32527;51.986;5.842;2023-11-21T09:00:12;25.80;;;10.18;;
46765;SDS011;32527;51.986;5.842;2023-11-21T09:02:42;23.02;;;9.23;;
46765;SDS011;32527;51.986;5.842;2023-11-21T09:05:09;21.70;;;9.65;;
46765;SDS011;32527;51.986;5.842;2023-11-21T09:07:35;21.83;;;10.23;;
46765;SDS011;32527;51.986;5.842;2023-11-21T09:10:02;22.70;;;10.98;;
46765;SDS011;32527;51.986;5.842;2023-11-21T09:12:28;18.38;;;9.13;;
46765;SDS011;32527;51.986;5.842;2023-11-21T09:14:57;26.58;;;12.18;;
46765;SDS011;32527;51.986;5.842;2023-11-21T09:17:23;19.80;;;9.73;;
46765;SDS011;32527;51.986;5.842;2023-11-21T09:19:50;23.42;;;10.07;;
46765;SDS011;32527;51.986;5.842;2023-11-21T09:22:16;34.40;;;11.32;;
46765;SDS011;32527;51.986;5.842;2023-11-21T09:24:43;21.98;;;10.82;;
46765;SDS011;32527;51.986;5.842;2023-11-21T09:27:09;23.73;;;10.90;;
46765;SDS011;32527;51.986;5.842;2023-11-21T09:29:36;19.88;;;9.68;;
46765;SDS011;32527;51.986;5.842;2023-11-21T09:32:05;28.75;;;10.50;;
46765;SDS011;32527;51.986;5.842;2023-11-21T09:34:39;17.23;;;10.20;;
46765;SDS011;32527;51.986;5.842;2023-11-21T09:37:05;20.52;;;8.50;;
46765;SDS011;32527;51.986;5.842;2023-11-21T09:39:32;18.17;;;9.05;;
46765;SDS011;32527;51.986;5.842;2023-11-21T09:42:15;17.63;;;8.40;;
46765;SDS011;32527;51.986;5.842;2023-11-21T09:44:56;20.55;;;10.00;;
46765;SDS011;32527;51.986;5.842;2023-11-21T09:47:29;18.90;;;9.45;;
46765;SDS011;32527;51.986;5.842;2023-11-21T09:49:56;23.15;;;11.27;;
46765;SDS011;32527;51.986;5.842;2023-11-21T09:52:27;18.65;;;10.65;;
46765;SDS011;32527;51.986;5.842;2023-11-21T09:54:53;19.10;;;9.02;;
46765;SDS011;32527;51.986;5.842;2023-11-21T09:57:23;20.02;;;9.02;;
46765;SDS011;32527;51.986;5.842;2023-11-21T09:59:50;17.05;;;8.70;;
46765;SDS011;32527;51.986;5.842;2023-11-21T10:02:20;19.38;;;9.48;;
46765;SDS011;32527;51.986;5.842;2023-11-21T10:04:51;19.55;;;9.32;;
46765;SDS011;32527;51.986;5.842;2023-11-21T10:07:17;15.80;;;9.02;;
46765;SDS011;32527;51.986;5.842;2023-11-21T10:09:45;14.52;;;8.13;;
46765;SDS011;32527;51.986;5.842;2023-11-21T10:12:13;12.13;;;5.80;;
46765;SDS011;32527;51.986;5.842;2023-11-21T10:14:41;14.32;;;8.02;;
46765;SDS011;32527;51.986;5.842;2023-11-21T10:17:10;13.13;;;6.63;;
46765;SDS011;32527;51.986;5.842;2023-11-21T10:19:37;10.85;;;6.07;;
46765;SDS011;32527;51.986;5.842;2023-11-21T10:22:04;14.27;;;6.72;;
46765;SDS011;32527;51.986;5.842;2023-11-21T10:24:32;13.98;;;6.97;;
46765;SDS011;32527;51.986;5.842;2023-11-21T10:26:58;15.93;;;8.45;;
46765;SDS011;32527;51.986;5.842;2023-11-21T10:29:28;17.55;;;7.90;;
46765;SDS011;32527;51.986;5.842;2023-11-21T10:31:55;18.10;;;9.07;;
46765;SDS011;32527;51.986;5.842;2023-11-21T10:34:23;11.40;;;7.20;;
46765;SDS011;32527;51.986;5.842;2023-11-21T10:36:50;13.90;;;8.70;;
46765;SDS011;32527;51.986;5.842;2023-11-21T10:39:16;12.70;;;6.85;;
46765;SDS011;32527;51.986;5.842;2023-11-21T10:41:43;11.13;;;6.20;;
46765;SDS011;32527;51.986;5.842;2023-11-21T10:44:13;11.75;;;6.50;;
46765;SDS011;32527;51.986;5.842;2023-11-21T10:46:49;12.02;;;5.13;;
46765;SDS011;32527;51.986;5.842;2023-11-21T10:49:16;11.70;;;5.75;;
46765;SDS011;32527;51.986;5.842;2023-11-21T10:51:43;12.35;;;6.43;;
46765;SDS011;32527;51.986;5.842;2023-11-21T10:54:10;11.50;;;5.68;;
46765;SDS011;32527;51.986;5.842;2023-11-21T10:56:37;11.05;;;5.72;;
46765;SDS011;32527;51.986;5.842;2023-11-21T10:59:08;8.57;;;5.30;;
46765;SDS011;32527;51.986;5.842;2023-11-21T11:01:40;11.05;;;5.75;;
46765;SDS011;32527;51.986;5.842;2023-11-21T11:04:09;7.85;;;4.85;;
46765;SDS011;32527;51.986;5.842;2023-11-21T11:06:42;9.23;;;4.63;;
46765;SDS011;32527;51.986;5.842;2023-11-21T11:09:10;10.98;;;5.07;;
46765;SDS011;32527;51.986;5.842;2023-11-21T11:11:39;9.85;;;5.53;;
46765;SDS011;32527;51.986;5.842;2023-11-21T11:14:07;12.43;;;6.38;;
46765;SDS011;32527;51.986;5.842;2023-11-21T11:16:37;16.60;;;7.38;;
46765;SDS011;32527;51.986;5.842;2023-11-21T11:19:09;13.52;;;6.75;;
46765;SDS011;32527;51.986;5.842;2023-11-21T11:24:24;8.98;;;5.32;;
46765;SDS011;32527;51.986;5.842;2023-11-21T11:28:14;12.25;;;6.40;;
46765;SDS011;32527;51.986;5.842;2023-11-21T11:35:45;12.52;;;5.55;;
46765;SDS011;32527;51.986;5.842;2023-11-21T11:38:32;9.15;;;5.35;;
46765;SDS011;32527;51.986;5.842;2023-11-21T11:41:01;12.73;;;5.28;;
46765;SDS011;32527;51.986;5.842;2023-11-21T11:43:30;13.10;;;5.53;;
46765;SDS011;32527;51.986;5.842;2023-11-21T11:46:09;10.18;;;5.03;;
46765;SDS011;32527;51.986;5.842;2023-11-21T11:48:38;7.53;;;4.43;;
46765;SDS011;32527;51.986;5.842;2023-11-21T11:51:11;10.80;;;5.68;;
46765;SDS011;32527;51.986;5.842;2023-11-21T11:53:49;9.13;;;5.78;;
46765;SDS011;32527;51.986;5.842;2023-11-21T11:58:53;10.45;;;5.00;;
46765;SDS011;32527;51.986;5.842;2023-11-21T12:01:20;10.35;;;5.22;;
46765;SDS011;32527;51.986;5.842;2023-11-21T12:06:50;8.43;;;5.13;;
46765;SDS011;32527;51.986;5.842;2023-11-21T12:09:17;10.65;;;5.20;;
46765;SDS011;32527;51.986;5.842;2023-11-21T12:11:44;6.75;;;3.85;;
46765;SDS011;32527;51.986;5.842;2023-11-21T12:14:11;10.43;;;5.15;;
46765;SDS011;32527;51.986;5.842;2023-11-21T12:16:38;8.35;;;4.43;;
46765;SDS011;32527;51.986;5.842;2023-11-21T12:19:05;7.57;;;4.32;;
46765;SDS011;32527;51.986;5.842;2023-11-21T12:21:31;5.70;;;3.72;;
46765;SDS011;32527;51.986;5.842;2023-11-21T12:23:58;8.20;;;4.95;;
46765;SDS011;32527;51.986;5.842;2023-11-21T12:26:24;10.82;;;5.50;;
46765;SDS011;32527;51.986;5.842;2023-11-21T12:28:53;5.88;;;3.65;;
46765;SDS011;32527;51.986;5.842;2023-11-21T12:31:22;9.40;;;5.45;;
46765;SDS011;32527;51.986;5.842;2023-11-21T12:33:48;9.48;;;4.57;;
46765;SDS011;32527;51.986;5.842;2023-11-21T12:36:14;12.00;;;5.40;;
46765;SDS011;32527;51.986;5.842;2023-11-21T12:38:41;10.95;;;4.07;;
46765;SDS011;32527;51.986;5.842;2023-11-21T12:41:07;10.68;;;6.18;;
46765;SDS011;32527;51.986;5.842;2023-11-21T12:43:34;10.07;;;6.20;;
46765;SDS011;32527;51.986;5.842;2023-11-21T12:46:12;12.30;;;6.32;;
46765;SDS011;32527;51.986;5.842;2023-11-21T12:48:43;11.02;;;5.97;;
46765;SDS011;32527;51.986;5.842;2023-11-21T12:51:11;9.13;;;5.25;;
46765;SDS011;32527;51.986;5.842;2023-11-21T12:53:37;9.00;;;6.63;;
46765;SDS011;32527;51.986;5.842;2023-11-21T12:56:07;10.27;;;6.45;;
46765;SDS011;32527;51.986;5.842;2023-11-21T12:58:37;11.25;;;6.03;;
46765;SDS011;32527;51.986;5.842;2023-11-21T13:01:04;12.57;;;6.13;;
46765;SDS011;32527;51.986;5.842;2023-11-21T13:03:37;10.43;;;5.50;;
46765;SDS011;32527;51.986;5.842;2023-11-21T13:06:03;10.85;;;6.40;;
46765;SDS011;32527;51.986;5.842;2023-11-21T13:08:30;11.45;;;6.65;;
46765;SDS011;32527;51.986;5.842;2023-11-21T13:10:58;11.00;;;6.10;;
46765;SDS011;32527;51.986;5.842;2023-11-21T13:13:25;17.23;;;7.57;;
46765;SDS011;32527;51.986;5.842;2023-11-21T13:15:56;12.00;;;6.78;;
46765;SDS011;32527;51.986;5.842;2023-11-21T13:18:26;17.35;;;6.90;;
46765;SDS011;32527;51.986;5.842;2023-11-21T13:20:57;16.33;;;8.20;;
46765;SDS011;32527;51.986;5.842;2023-11-21T13:23:24;12.07;;;6.97;;
46765;SDS011;32527;51.986;5.842;2023-11-21T13:25:51;14.02;;;6.90;;
46765;SDS011;32527;51.986;5.842;2023-11-21T13:28:20;11.75;;;6.13;;
46765;SDS011;32527;51.986;5.842;2023-11-21T13:30:47;12.50;;;6.55;;
46765;SDS011;32527;51.986;5.842;2023-11-21T13:33:13;14.45;;;7.07;;
46765;SDS011;32527;51.986;5.842;2023-11-21T13:35:46;14.98;;;7.95;;
46765;SDS011;32527;51.986;5.842;2023-11-21T13:38:17;17.27;;;7.75;;
46765;SDS011;32527;51.986;5.842;2023-11-21T13:40:47;10.75;;;6.50;;
46765;SDS011;32527;51.986;5.842;2023-11-21T13:43:24;9.30;;;5.97;;
46765;SDS011;32527;51.986;5.842;2023-11-21T13:45:51;16.70;;;6.88;;
46765;SDS011;32527;51.986;5.842;2023-11-21T13:48:38;10.73;;;5.93;;
46765;SDS011;32527;51.986;5.842;2023-11-21T13:51:20;9.88;;;5.15;;
46765;SDS011;32527;51.986;5.842;2023-11-21T13:53:54;15.18;;;6.70;;
46765;SDS011;32527;51.986;5.842;2023-11-21T13:56:20;8.90;;;5.75;;
46765;SDS011;32527;51.986;5.842;2023-11-21T13:58:50;12.55;;;6.18;;
46765;SDS011;32527;51.986;5.842;2023-11-21T14:01:17;8.77;;;5.78;;
46765;SDS011;32527;51.986;5.842;2023-11-21T14:04:01;11.02;;;5.53;;
46765;SDS011;32527;51.986;5.842;2023-11-21T14:06:36;10.43;;;5.63;;
46765;SDS011;32527;51.986;5.842;2023-11-21T14:09:13;8.45;;;5.13;;
46765;SDS011;32527;51.986;5.842;2023-11-21T14:11:47;12.57;;;5.88;;
46765;SDS011;32527;51.986;5.842;2023-11-21T14:14:21;7.43;;;4.68;;
46765;SDS011;32527;51.986;5.842;2023-11-21T14:16:50;8.65;;;4.20;;
46765;SDS011;32527;51.986;5.842;2023-11-21T14:19:17;11.75;;;5.45;;
46765;SDS011;32527;51.986;5.842;2023-11-21T14:21:46;11.63;;;5.55;;
46765;SDS011;32527;51.986;5.842;2023-11-21T14:24:13;9.40;;;5.20;;
46765;SDS011;32527;51.986;5.842;2023-11-21T14:26:43;12.07;;;5.70;;
46765;SDS011;32527;51.986;5.842;2023-11-21T14:29:11;16.80;;;7.13;;
46765;SDS011;32527;51.986;5.842;2023-11-21T14:31:42;11.20;;;5.60;;
46765;SDS011;32527;51.986;5.842;2023-11-21T14:34:08;12.32;;;6.22;;
46765;SDS011;32527;51.986;5.842;2023-11-21T14:36:37;12.68;;;6.47;;
46765;SDS011;32527;51.986;5.842;2023-11-21T14:39:04;12.43;;;5.63;;
46765;SDS011;32527;51.986;5.842;2023-11-21T14:41:36;13.45;;;5.40;;
46765;SDS011;32527;51.986;5.842;2023-11-21T14:44:04;10.98;;;4.82;;
46765;SDS011;32527;51.986;5.842;2023-11-21T14:46:32;9.68;;;4.75;;
46765;SDS011;32527;51.986;5.842;2023-11-21T14:49:00;11.43;;;5.18;;
46765;SDS011;32527;51.986;5.842;2023-11-21T14:54:31;13.25;;;6.10;;
46765;SDS011;32527;51.986;5.842;2023-11-21T14:57:09;12.80;;;5.75;;